Time;durP1;ratioP1;P1;durP2;ratioP2;P2;SDS_P1;SDS_P2;PMS_P1;PMS_P2;Temp;Humidity;BMP_temperature;BMP_pressure;BME280_temperature;BME280_humidity;BME280_pressure;Samples;Min_cycle;Max_cycle;Signal;HPM_P1;HPM_P2
2021/08/18 00:00:51;;;;;;;;;;;24.00;40.50;;;;;;1513007;77;706;-59
2021/08/18 00:02:53;;;;;;;;;;;24.00;40.40;;;;;;1513621;77;1185;-59
2021/08/18 00:04:55;;;;;;;;;;;24.00;40.50;;;;;;1523954;77;758;-56
2021/08/18 00:06:57;;;;;;;;;;;24.00;40.50;;;;;;1507792;77;764;-59
2021/08/18 00:08:58;;;;;;;;;;;24.00;40.40;;;;;;1513298;77;672;-61
2021/08/18 00:11:00;;;;;;;;;;;24.00;40.50;;;;;;1508790;77;795;-59
2021/08/18 00:13:03;;;;;;;;;;;23.90;40.50;;;;;;1514330;77;1139;-61
2021/08/18 00:15:05;;;;;;;;;;;24.00;40.50;;;;;;1502219;77;668;-60
2021/08/18 00:17:07;;;;;;;;;;;23.90;40.50;;;;;;1517055;77;770;-59
2021/08/18 00:19:09;;;;;;;;;;;24.00;40.50;;;;;;1512024;77;1922;-60
2021/08/18 00:21:11;;;;;;;;;;;24.00;40.50;;;;;;1518938;77;659;-60
2021/08/18 00:23:13;;;;;;;;;;;23.90;40.50;;;;;;1515618;77;1143;-60
2021/08/18 00:25:15;;;;;;;;;;;24.00;40.60;;;;;;1498620;77;754;-60
2021/08/18 00:27:16;;;;;;;;;;;24.00;40.60;;;;;;1506181;77;817;-59
2021/08/18 00:29:18;;;;;;;;;;;23.90;40.50;;;;;;1515595;77;705;-61
2021/08/18 00:31:20;;;;;;;;;;;23.90;40.50;;;;;;1520633;77;815;-60
2021/08/18 00:33:22;;;;;;;;;;;23.90;40.50;;;;;;1515353;77;1136;-60
2021/08/18 00:35:24;;;;;;;;;;;24.00;40.50;;;;;;1515735;77;789;-60
2021/08/18 00:37:26;;;;;;;;;;;23.90;40.50;;;;;;1500717;77;738;-60
2021/08/18 00:39:28;;;;;;;;;;;23.90;40.50;;;;;;1516936;77;1942;-60
2021/08/18 00:41:30;;;;;;;;;;;24.00;40.50;;;;;;1513568;77;739;-59
2021/08/18 00:43:31;;;;;;;;;;;23.90;40.60;;;;;;1502260;77;1117;-59
2021/08/18 00:45:33;;;;;;;;;;;23.90;40.50;;;;;;1520668;77;774;-60
2021/08/18 00:47:42;;;;;;;;;;;23.90;40.60;;;;;;1503974;77;842;-59
2021/08/18 00:49:44;;;;;;;;;;;23.90;40.70;;;;;;1513233;77;773;-60
2021/08/18 00:51:46;;;;;;;;;;;23.90;40.70;;;;;;1515593;77;787;-58
2021/08/18 00:53:49;;;;;;;;;;;23.90;40.70;;;;;;1509991;77;1048;-60
2021/08/18 00:55:51;;;;;;;;;;;23.90;40.70;;;;;;1508311;77;825;-60
2021/08/18 00:57:53;;;;;;;;;;;23.90;40.70;;;;;;1522214;77;715;-60
2021/08/18 00:59:55;;;;;;;;;;;23.90;40.70;;;;;;1526029;77;1992;-60
2021/08/18 01:01:57;;;;;;;;;;;23.90;40.70;;;;;;1520698;77;694;-60
2021/08/18 01:04:00;;;;;;;;;;;23.90;40.70;;;;;;1504208;78;1158;-58
2021/08/18 01:06:02;;;;;;;;;;;23.90;40.70;;;;;;1507094;77;717;-60
2021/08/18 01:08:03;;;;;;;;;;;23.90;40.80;;;;;;1525654;77;804;-60
2021/08/18 01:10:06;;;;;;;;;;;23.90;40.80;;;;;;1528013;77;712;-60
2021/08/18 01:12:08;;;;;;;;;;;23.90;40.80;;;;;;1506103;77;712;-60
2021/08/18 01:14:10;;;;;;;;;;;23.90;40.90;;;;;;1520789;77;1123;-60
2021/08/18 01:16:12;;;;;;;;;;;23.90;40.90;;;;;;1521057;77;752;-60
2021/08/18 01:18:14;;;;;;;;;;;23.90;40.90;;;;;;1519465;77;707;-60
2021/08/18 01:20:17;;;;;;;;;;;23.90;40.90;;;;;;1521405;77;1942;-60
2021/08/18 01:22:18;;;;;;;;;;;23.80;40.80;;;;;;1512685;77;764;-60
2021/08/18 01:24:21;;;;;;;;;;;23.90;40.90;;;;;;1520757;77;1068;-60
2021/08/18 01:26:23;;;;;;;;;;;23.90;41.00;;;;;;1520612;77;704;-59
2021/08/18 01:28:26;;;;;;;;;;;23.90;41.00;;;;;;1518861;77;753;-60
2021/08/18 01:30:28;;;;;;;;;;;23.90;41.00;;;;;;1505930;77;771;-60
2021/08/18 01:32:31;;;;;;;;;;;23.90;41.00;;;;;;1527344;77;1127;-58
2021/08/18 01:34:35;;;;;;;;;;;23.90;41.00;;;;;;1518309;77;1999;-59
2021/08/18 01:36:37;;;;;;;;;;;23.80;41.00;;;;;;1516224;77;708;-60
2021/08/18 01:38:39;;;;;;;;;;;23.90;41.00;;;;;;1516811;77;785;-61
2021/08/18 01:40:41;;;;;;;;;;;23.90;41.10;;;;;;1519716;77;1945;-60
2021/08/18 01:42:43;;;;;;;;;;;23.80;41.10;;;;;;1520484;77;1131;-59
2021/08/18 01:44:45;;;;;;;;;;;23.90;41.20;;;;;;1525197;73;222685;-62
2021/08/18 01:46:47;;;;;;;;;;;23.90;41.20;;;;;;1552199;76;823;-62
2021/08/18 01:48:49;;;;;;;;;;;23.80;41.10;;;;;;1539292;76;683;-62
2021/08/18 01:50:54;;;;;;;;;;;23.80;41.10;;;;;;1536331;76;710;-61
2021/08/18 01:52:56;;;;;;;;;;;23.90;41.20;;;;;;1518221;77;786;-61
2021/08/18 01:54:59;;;;;;;;;;;23.90;41.20;;;;;;1494260;77;1198;-62
2021/08/18 01:57:01;;;;;;;;;;;23.80;41.30;;;;;;1518439;76;678;-61
2021/08/18 01:59:03;;;;;;;;;;;23.80;41.20;;;;;;1527392;76;686;-62
2021/08/18 02:01:06;;;;;;;;;;;23.80;41.20;;;;;;1533110;76;1928;-63
2021/08/18 02:03:07;;;;;;;;;;;23.80;41.10;;;;;;1532775;76;678;-59
2021/08/18 02:05:10;;;;;;;;;;;23.80;41.20;;;;;;1532780;76;1187;-62
2021/08/18 02:07:12;;;;;;;;;;;23.80;41.20;;;;;;1527088;77;754;-62
2021/08/18 02:09:13;;;;;;;;;;;23.80;41.20;;;;;;1529438;76;713;-62
2021/08/18 02:11:15;;;;;;;;;;;23.80;41.30;;;;;;1523023;76;705;-61
2021/08/18 02:13:17;;;;;;;;;;;23.80;41.30;;;;;;1529086;76;777;-62
2021/08/18 02:15:20;;;;;;;;;;;23.80;41.30;;;;;;1530708;76;1120;-62
2021/08/18 02:17:22;;;;;;;;;;;23.80;41.30;;;;;;1535987;76;594;-62
2021/08/18 02:19:24;;;;;;;;;;;23.90;41.40;;;;;;1530142;77;1947;-62
2021/08/18 02:21:26;;;;;;;;;;;23.80;41.30;;;;;;1535408;76;761;-62
2021/08/18 02:23:28;;;;;;;;;;;23.70;41.30;;;;;;1528761;76;766;-62
2021/08/18 02:25:30;;;;;;;;;;;23.80;41.40;;;;;;1534894;76;1110;-64
2021/08/18 02:27:31;;;;;;;;;;;23.80;41.30;;;;;;1527859;76;764;-61
2021/08/18 02:29:33;;;;;;;;;;;23.70;41.40;;;;;;1531508;76;797;-61
2021/08/18 02:31:35;;;;;;;;;;;23.70;41.40;;;;;;1527193;76;722;-60
2021/08/18 02:33:37;;;;;;;;;;;23.70;41.40;;;;;;1532754;76;762;-61
2021/08/18 02:35:39;;;;;;;;;;;23.80;41.40;;;;;;1529169;76;1151;-62
2021/08/18 02:37:41;;;;;;;;;;;23.70;41.50;;;;;;1522583;76;811;-63
2021/08/18 02:39:43;;;;;;;;;;;23.80;41.50;;;;;;1532309;76;1936;-62
2021/08/18 02:41:45;;;;;;;;;;;23.80;41.50;;;;;;1536066;76;823;-59
2021/08/18 02:43:47;;;;;;;;;;;23.70;41.50;;;;;;1524808;76;780;-63
2021/08/18 02:45:49;;;;;;;;;;;23.80;41.50;;;;;;1518975;76;1134;-61
2021/08/18 02:47:50;;;;;;;;;;;23.80;41.60;;;;;;1531807;76;657;-63
2021/08/18 02:49:53;;;;;;;;;;;23.80;41.60;;;;;;1533832;76;788;-61
2021/08/18 02:51:55;;;;;;;;;;;23.70;41.70;;;;;;1531275;76;723;-63
2021/08/18 02:53:56;;;;;;;;;;;23.70;41.60;;;;;;1534388;76;737;-62
2021/08/18 02:55:58;;;;;;;;;;;23.80;41.60;;;;;;1522483;76;1135;-63
2021/08/18 02:58:00;;;;;;;;;;;23.80;41.60;;;;;;1533828;76;791;-63
2021/08/18 03:00:03;;;;;;;;;;;23.80;41.50;;;;;;1532149;76;1950;-62
2021/08/18 03:02:05;;;;;;;;;;;23.80;41.60;;;;;;1536111;76;725;-62
2021/08/18 03:04:07;;;;;;;;;;;23.80;41.60;;;;;;1531529;76;858;-63
2021/08/18 03:06:08;;;;;;;;;;;23.70;41.60;;;;;;1536001;76;1114;-62
2021/08/18 03:08:10;;;;;;;;;;;23.80;41.50;;;;;;1531638;76;724;-61
2021/08/18 03:10:12;;;;;;;;;;;23.80;41.60;;;;;;1535878;76;825;-61
2021/08/18 03:12:14;;;;;;;;;;;23.80;41.50;;;;;;1518956;76;734;-63
2021/08/18 03:14:16;;;;;;;;;;;23.80;41.50;;;;;;1521128;76;1078;-62
2021/08/18 03:16:18;;;;;;;;;;;23.80;41.50;;;;;;1534134;76;773;-62
2021/08/18 03:18:20;;;;;;;;;;;23.80;41.50;;;;;;1535870;76;762;-61
2021/08/18 03:20:22;;;;;;;;;;;23.80;41.50;;;;;;1529366;76;1937;-62
2021/08/18 03:22:24;;;;;;;;;;;23.80;41.50;;;;;;1530921;76;928;-63
2021/08/18 03:24:25;;;;;;;;;;;23.80;41.60;;;;;;1529303;76;1130;-62
2021/08/18 03:26:27;;;;;;;;;;;23.70;41.60;;;;;;1532388;76;810;-63
2021/08/18 03:28:29;;;;;;;;;;;23.80;41.60;;;;;;1533564;76;757;-62
2021/08/18 03:30:31;;;;;;;;;;;23.70;41.50;;;;;;1524131;76;811;-62
2021/08/18 03:32:33;;;;;;;;;;;23.80;41.60;;;;;;1536072;76;716;-63
2021/08/18 03:34:35;;;;;;;;;;;23.70;41.60;;;;;;1536039;76;1132;-62
2021/08/18 03:36:37;;;;;;;;;;;23.70;41.70;;;;;;1534135;76;752;-61
2021/08/18 03:38:38;;;;;;;;;;;23.70;41.70;;;;;;1534690;76;813;-63
2021/08/18 03:40:40;;;;;;;;;;;23.70;41.70;;;;;;1522365;76;1945;-63
2021/08/18 03:42:42;;;;;;;;;;;23.80;41.70;;;;;;1533994;76;791;-62
2021/08/18 03:44:44;;;;;;;;;;;23.80;41.70;;;;;;1542980;76;1122;-61
2021/08/18 03:46:46;;;;;;;;;;;23.70;41.70;;;;;;1532637;76;787;-62
2021/08/18 03:48:48;;;;;;;;;;;23.80;41.70;;;;;;1536166;76;769;-61
2021/08/18 03:50:50;;;;;;;;;;;23.70;41.70;;;;;;1523792;76;682;-61
2021/08/18 03:52:51;;;;;;;;;;;23.70;41.80;;;;;;1540410;76;658;-61
2021/08/18 03:54:53;;;;;;;;;;;23.70;41.70;;;;;;1536126;76;1138;-61
2021/08/18 03:56:55;;;;;;;;;;;23.70;41.70;;;;;;1536091;76;722;-62
2021/08/18 03:58:57;;;;;;;;;;;23.80;41.80;;;;;;1534701;76;719;-62
2021/08/18 04:00:59;;;;;;;;;;;23.70;41.80;;;;;;1534354;76;1932;-62
2021/08/18 04:03:01;;;;;;;;;;;23.70;41.80;;;;;;1532890;76;969;-63
2021/08/18 04:05:03;;;;;;;;;;;23.80;41.80;;;;;;1536023;76;1142;-59
2021/08/18 04:07:05;;;;;;;;;;;23.70;41.90;;;;;;1530130;76;663;-63
2021/08/18 04:09:07;;;;;;;;;;;23.60;41.80;;;;;;1525426;76;785;-63
2021/08/18 04:11:11;;;;;;;;;;;23.70;41.90;;;;;;1534903;76;764;-63
2021/08/18 04:13:12;;;;;;;;;;;23.70;41.90;;;;;;1536008;76;655;-62
2021/08/18 04:15:14;;;;;;;;;;;23.70;42.00;;;;;;1534987;76;1169;-62
2021/08/18 04:17:16;;;;;;;;;;;23.60;41.80;;;;;;1523782;76;802;-61
2021/08/18 04:19:18;;;;;;;;;;;23.70;42.00;;;;;;1529409;76;717;-62
2021/08/18 04:21:20;;;;;;;;;;;23.70;42.00;;;;;;1528359;76;1938;-63
2021/08/18 04:23:22;;;;;;;;;;;23.60;41.80;;;;;;1522179;76;763;-62
2021/08/18 04:25:24;;;;;;;;;;;23.70;42.00;;;;;;1543148;76;1119;-63
2021/08/18 04:27:25;;;;;;;;;;;23.70;42.00;;;;;;1531808;76;731;-63
2021/08/18 04:29:27;;;;;;;;;;;23.70;42.00;;;;;;1536149;76;719;-62
2021/08/18 04:31:29;;;;;;;;;;;23.80;42.00;;;;;;1535924;76;794;-63
2021/08/18 04:33:31;;;;;;;;;;;23.70;42.00;;;;;;1535947;76;775;-63
2021/08/18 04:35:33;;;;;;;;;;;23.70;42.10;;;;;;1527335;76;1134;-60
2021/08/18 04:37:38;;;;;;;;;;;23.70;42.10;;;;;;1526749;76;662;-62
2021/08/18 04:39:39;;;;;;;;;;;23.70;42.10;;;;;;1540558;76;791;-63
2021/08/18 04:41:41;;;;;;;;;;;23.80;42.10;;;;;;1525306;76;1920;-60
2021/08/18 04:43:43;;;;;;;;;;;23.60;42.00;;;;;;1535000;76;681;-62
2021/08/18 04:45:45;;;;;;;;;;;23.70;42.20;;;;;;1526159;76;1187;-63
2021/08/18 04:47:47;;;;;;;;;;;23.70;42.10;;;;;;1531723;76;766;-61
2021/08/18 04:49:49;;;;;;;;;;;23.70;42.10;;;;;;1533351;76;717;-62
2021/08/18 04:51:51;;;;;;;;;;;23.60;42.00;;;;;;1525292;76;723;-62
2021/08/18 04:53:53;;;;;;;;;;;23.70;42.10;;;;;;1524885;76;717;-62
2021/08/18 04:55:54;;;;;;;;;;;23.70;42.10;;;;;;1524525;76;1135;-62
2021/08/18 04:57:56;;;;;;;;;;;23.70;42.10;;;;;;1535001;76;806;-62
2021/08/18 04:59:58;;;;;;;;;;;23.80;42.10;;;;;;1542295;76;677;-61
2021/08/18 05:02:00;;;;;;;;;;;23.70;42.10;;;;;;1539665;76;1948;-63
2021/08/18 05:04:03;;;;;;;;;;;23.70;42.20;;;;;;1527646;76;719;-63
2021/08/18 05:06:04;;;;;;;;;;;23.70;42.20;;;;;;1532908;76;1090;-62
2021/08/18 05:08:07;;;;;;;;;;;23.70;42.30;;;;;;1536085;76;676;-59
2021/08/18 05:10:09;;;;;;;;;;;23.70;42.20;;;;;;1535860;76;827;-63
2021/08/18 05:12:11;;;;;;;;;;;23.70;42.30;;;;;;1534748;76;736;-61
2021/08/18 05:14:13;;;;;;;;;;;23.70;42.30;;;;;;1519720;76;670;-61
2021/08/18 05:16:15;;;;;;;;;;;23.70;42.30;;;;;;1526381;76;694;-61
2021/08/18 05:18:16;;;;;;;;;;;23.70;42.30;;;;;;1529201;76;785;-61
2021/08/18 05:20:18;;;;;;;;;;;23.70;42.30;;;;;;1535096;76;773;-62
2021/08/18 05:22:20;;;;;;;;;;;23.60;42.10;;;;;;1521840;76;1910;-61
2021/08/18 05:24:22;;;;;;;;;;;23.70;42.30;;;;;;1524820;76;1095;-63
2021/08/18 05:26:24;;;;;;;;;;;23.60;42.20;;;;;;1520278;76;774;-63
2021/08/18 05:28:26;;;;;;;;;;;23.70;42.40;;;;;;1536011;76;748;-62
2021/08/18 05:30:28;;;;;;;;;;;23.70;42.30;;;;;;1535976;76;857;-61
2021/08/18 05:32:30;;;;;;;;;;;23.60;42.30;;;;;;1531750;76;675;-63
2021/08/18 05:34:32;;;;;;;;;;;23.70;42.30;;;;;;1527180;76;1143;-63
2021/08/18 05:36:33;;;;;;;;;;;23.70;42.40;;;;;;1543259;76;731;-62
2021/08/18 05:38:37;;;;;;;;;;;23.70;42.40;;;;;;1536308;76;750;-59
2021/08/18 05:40:39;;;;;;;;;;;23.70;42.40;;;;;;1530576;76;1924;-62
2021/08/18 05:42:41;;;;;;;;;;;23.70;42.40;;;;;;1530130;76;723;-63
2021/08/18 05:44:42;;;;;;;;;;;23.70;42.40;;;;;;1525919;76;1148;-62
2021/08/18 05:46:44;;;;;;;;;;;23.70;42.40;;;;;;1541267;76;743;-62
2021/08/18 05:48:46;;;;;;;;;;;23.70;42.40;;;;;;1529939;76;753;-62
2021/08/18 05:50:48;;;;;;;;;;;23.70;42.50;;;;;;1535239;76;768;-62
2021/08/18 05:52:50;;;;;;;;;;;23.70;42.50;;;;;;1529459;76;729;-62
2021/08/18 05:54:52;;;;;;;;;;;23.70;42.60;;;;;;1535640;76;1147;-63
2021/08/18 05:56:54;;;;;;;;;;;23.70;42.60;;;;;;1532603;76;732;-61
2021/08/18 05:58:55;;;;;;;;;;;23.70;42.60;;;;;;1542452;76;701;-63
2021/08/18 06:00:58;;;;;;;;;;;23.70;42.60;;;;;;1525614;76;1932;-62
2021/08/18 06:02:59;;;;;;;;;;;23.70;42.60;;;;;;1535086;76;837;-63
2021/08/18 06:05:01;;;;;;;;;;;23.70;42.70;;;;;;1535997;76;1129;-62
2021/08/18 06:07:03;;;;;;;;;;;23.70;42.70;;;;;;1536004;76;788;-63
2021/08/18 06:09:05;;;;;;;;;;;23.60;42.60;;;;;;1525589;76;744;-62
2021/08/18 06:11:07;;;;;;;;;;;23.70;42.70;;;;;;1520446;76;722;-62
2021/08/18 06:13:09;;;;;;;;;;;23.70;42.80;;;;;;1533185;76;835;-62
2021/08/18 06:15:11;;;;;;;;;;;23.70;42.80;;;;;;1535950;76;1180;-63
2021/08/18 06:17:13;;;;;;;;;;;23.60;42.70;;;;;;1528877;76;752;-63
2021/08/18 06:19:16;;;;;;;;;;;23.60;42.60;;;;;;1536084;76;739;-61
2021/08/18 06:21:18;;;;;;;;;;;23.60;42.70;;;;;;1522923;76;1924;-61
2021/08/18 06:23:27;;;;;;;;;;;23.70;42.80;;;;;;1518419;76;877;-62
2021/08/18 06:25:23;;;;;;;;;;;23.70;42.90;;;;;;1530473;76;1598;-61
2021/08/18 06:27:26;;;;;;;;;;;23.70;42.90;;;;;;1536237;76;741;-63
2021/08/18 06:29:31;;;;;;;;;;;23.60;42.80;;;;;;1532987;76;683;-63
2021/08/18 06:31:31;;;;;;;;;;;23.70;42.80;;;;;;1537495;76;1764;-61
2021/08/18 06:33:33;;;;;;;;;;;23.60;42.80;;;;;;1534116;76;793;-63
2021/08/18 06:35:35;;;;;;;;;;;23.60;42.80;;;;;;1535033;76;1131;-62
2021/08/18 06:37:38;;;;;;;;;;;23.60;42.80;;;;;;1537425;76;778;-63
2021/08/18 06:39:40;;;;;;;;;;;23.70;43.00;;;;;;1534889;76;720;-62
2021/08/18 06:41:41;;;;;;;;;;;23.70;43.00;;;;;;1533550;76;1957;-61
2021/08/18 06:43:43;;;;;;;;;;;23.70;43.00;;;;;;1534934;76;666;-60
2021/08/18 06:45:45;;;;;;;;;;;23.60;42.90;;;;;;1535777;76;1126;-61
2021/08/18 06:47:47;;;;;;;;;;;23.60;42.90;;;;;;1532870;76;805;-63
2021/08/18 06:49:49;;;;;;;;;;;23.70;43.10;;;;;;1532797;76;775;-61
2021/08/18 06:51:51;;;;;;;;;;;23.60;42.90;;;;;;1525241;76;739;-62
2021/08/18 06:53:53;;;;;;;;;;;23.60;43.00;;;;;;1529712;76;749;-63
2021/08/18 06:55:54;;;;;;;;;;;23.70;43.10;;;;;;1520244;76;1142;-63
2021/08/18 06:57:56;;;;;;;;;;;23.70;43.10;;;;;;1536623;76;730;-63
2021/08/18 06:59:58;;;;;;;;;;;23.60;43.00;;;;;;1529672;76;748;-62
2021/08/18 07:02:00;;;;;;;;;;;23.70;43.10;;;;;;1532588;76;1948;-61
2021/08/18 07:04:05;;;;;;;;;;;23.60;43.00;;;;;;1533207;76;934;-62
2021/08/18 07:06:05;;;;;;;;;;;23.70;43.10;;;;;;1530842;76;1688;-62
2021/08/18 07:08:07;;;;;;;;;;;23.60;43.10;;;;;;1527561;76;789;-63
2021/08/18 07:10:10;;;;;;;;;;;23.60;43.10;;;;;;1521138;76;795;-62
2021/08/18 07:12:11;;;;;;;;;;;23.60;43.10;;;;;;1531324;76;659;-62
2021/08/18 07:14:13;;;;;;;;;;;23.70;43.20;;;;;;1524045;76;830;-61
2021/08/18 07:16:15;;;;;;;;;;;23.60;43.10;;;;;;1524711;76;733;-61
2021/08/18 07:18:17;;;;;;;;;;;23.60;43.10;;;;;;1526393;76;763;-62
2021/08/18 07:20:19;;;;;;;;;;;23.60;43.10;;;;;;1531129;76;753;-63
2021/08/18 07:22:21;;;;;;;;;;;23.70;43.30;;;;;;1527476;76;1906;-62
2021/08/18 07:24:24;;;;;;;;;;;23.60;43.10;;;;;;1533321;76;1122;-62
2021/08/18 07:26:26;;;;;;;;;;;23.60;43.20;;;;;;1515711;76;745;-63
2021/08/18 07:28:28;;;;;;;;;;;23.60;43.20;;;;;;1529207;76;847;-62
2021/08/18 07:30:30;;;;;;;;;;;23.70;43.40;;;;;;1529800;76;844;-62
2021/08/18 07:32:32;;;;;;;;;;;23.60;43.30;;;;;;1517578;76;678;-62
2021/08/18 07:34:34;;;;;;;;;;;23.60;43.30;;;;;;1523857;76;1141;-62
2021/08/18 07:36:36;;;;;;;;;;;23.60;43.30;;;;;;1526233;76;941;-62
2021/08/18 07:38:38;;;;;;;;;;;23.70;43.40;;;;;;1529983;76;758;-62
2021/08/18 07:40:40;;;;;;;;;;;23.70;43.40;;;;;;1528223;76;829;-62
2021/08/18 07:42:41;;;;;;;;;;;23.60;43.30;;;;;;1521531;76;1934;-63
2021/08/18 07:46:48;;;;;;;;;;;23.60;43.30;;;;;;1537244;76;669;-56
2021/08/18 07:48:50;;;;;;;;;;;23.70;43.40;;;;;;1537927;76;825;-60
2021/08/18 07:50:52;;;;;;;;;;;23.70;43.40;;;;;;1529861;76;752;-58
2021/08/18 07:52:53;;;;;;;;;;;23.60;43.30;;;;;;1534483;76;1198;-58
2021/08/18 07:54:55;;;;;;;;;;;23.70;43.40;;;;;;1516808;77;743;-59
2021/08/18 07:56:57;;;;;;;;;;;23.60;43.40;;;;;;1509431;78;711;-57
2021/08/18 07:59:00;;;;;;;;;;;23.70;43.50;;;;;;1505710;78;675;-58
2021/08/18 08:01:01;;;;;;;;;;;23.70;43.40;;;;;;1525632;78;747;-58
2021/08/18 08:03:03;;;;;;;;;;;23.70;43.40;;;;;;1511717;78;1955;-55
2021/08/18 08:05:06;;;;;;;;;;;23.70;43.30;;;;;;1507814;78;731;-55
2021/08/18 08:07:08;;;;;;;;;;;23.70;43.40;;;;;;1512075;78;736;-59
2021/08/18 08:09:10;;;;;;;;;;;23.70;43.40;;;;;;1516039;78;708;-58
2021/08/18 08:11:12;;;;;;;;;;;23.70;43.40;;;;;;1507742;78;725;-58
2021/08/18 08:13:14;;;;;;;;;;;23.70;43.40;;;;;;1510776;77;1133;-60
2021/08/18 08:15:15;;;;;;;;;;;23.70;43.30;;;;;;1518353;78;728;-59
2021/08/18 08:17:17;;;;;;;;;;;23.70;43.30;;;;;;1509631;78;733;-58
2021/08/18 08:19:19;;;;;;;;;;;23.70;43.20;;;;;;1513406;78;706;-60
2021/08/18 08:21:21;;;;;;;;;;;23.70;43.10;;;;;;1504812;78;782;-59
2021/08/18 08:23:23;;;;;;;;;;;23.70;43.10;;;;;;1504127;77;1917;-56
2021/08/18 08:25:25;;;;;;;;;;;23.80;43.10;;;;;;1513330;78;783;-58
2021/08/18 08:27:27;;;;;;;;;;;23.70;43.10;;;;;;1517238;78;792;-56
2021/08/18 08:29:29;;;;;;;;;;;23.70;43.10;;;;;;1510878;78;751;-57
2021/08/18 08:31:31;;;;;;;;;;;23.70;43.10;;;;;;1515219;77;742;-60
2021/08/18 08:33:32;;;;;;;;;;;23.70;43.00;;;;;;1505465;78;1140;-60
2021/08/18 08:35:34;;;;;;;;;;;23.70;43.10;;;;;;1526024;78;806;-60
2021/08/18 08:37:36;;;;;;;;;;;23.70;43.00;;;;;;1512927;78;779;-59
2021/08/18 08:39:38;;;;;;;;;;;23.70;43.10;;;;;;1510757;77;761;-59
2021/08/18 08:41:41;;;;;;;;;;;23.80;43.10;;;;;;1511785;77;608;-58
2021/08/18 08:43:43;;;;;;;;;;;23.70;43.10;;;;;;1515616;78;1136;-58
2021/08/18 08:45:47;;;;;;;;;;;23.70;43.10;;;;;;1524057;78;787;-55
2021/08/18 08:47:49;;;;;;;;;;;23.70;43.10;;;;;;1502355;78;672;-55
2021/08/18 08:49:51;;;;;;;;;;;23.70;43.00;;;;;;1515076;78;660;-59
2021/08/18 08:51:53;;;;;;;;;;;23.70;43.00;;;;;;1502752;77;661;-58
2021/08/18 08:53:55;;;;;;;;;;;23.80;43.00;;;;;;1506375;78;1163;-59
2021/08/18 08:55:57;;;;;;;;;;;23.80;42.90;;;;;;1509593;78;778;-56
2021/08/18 08:57:59;;;;;;;;;;;23.80;42.90;;;;;;1505001;78;790;-59
2021/08/18 09:00:00;;;;;;;;;;;23.70;42.90;;;;;;1508694;77;722;-60
2021/08/18 09:02:04;;;;;;;;;;;23.80;42.90;;;;;;1502580;78;1950;-57
2021/08/18 09:04:06;;;;;;;;;;;23.70;42.90;;;;;;1502937;78;1863;-59
2021/08/18 09:06:08;;;;;;;;;;;23.80;42.80;;;;;;1501754;78;724;-59
2021/08/18 09:08:14;;;;;;;;;;;23.70;42.80;;;;;;1505619;77;656;-57
2021/08/18 09:10:16;;;;;;;;;;;23.70;42.80;;;;;;1511925;78;724;-59
2021/08/18 09:12:19;;;;;;;;;;;23.80;42.80;;;;;;1503754;78;709;-59
2021/08/18 09:14:27;;;;;;;;;;;23.80;42.70;;;;;;1507697;78;1132;-60
2021/08/18 09:16:37;;;;;;;;;;;23.80;42.80;;;;;;1499391;77;747;-58
2021/08/18 09:18:41;;;;;;;;;;;23.80;42.70;;;;;;1504554;77;839;-58
2021/08/18 09:20:43;;;;;;;;;;;23.70;42.80;;;;;;1504118;78;1814;-57
2021/08/18 09:22:46;;;;;;;;;;;23.80;42.80;;;;;;1504724;77;1926;-57
2021/08/18 09:24:48;;;;;;;;;;;23.80;42.70;;;;;;1515324;78;775;-59
2021/08/18 09:26:54;;;;;;;;;;;23.80;42.70;;;;;;1508629;78;811;-59
2021/08/18 09:28:57;;;;;;;;;;;23.80;42.70;;;;;;1502933;77;777;-59
2021/08/18 09:30:59;;;;;;;;;;;23.80;42.80;;;;;;1507660;78;745;-57
2021/08/18 09:33:05;;;;;;;;;;;23.80;42.80;;;;;;1501688;78;1141;-57
2021/08/18 09:35:11;;;;;;;;;;;23.70;42.90;;;;;;1520187;78;1899;-59
2021/08/18 09:37:13;;;;;;;;;;;23.80;42.80;;;;;;1515102;77;681;-55
2021/08/18 09:39:22;;;;;;;;;;;23.80;42.90;;;;;;1501576;78;741;-54
2021/08/18 09:41:23;;;;;;;;;;;23.90;43.00;;;;;;1505184;78;742;-56
2021/08/18 09:43:26;;;;;;;;;;;23.80;42.90;;;;;;1479225;80;1939;-60
2021/08/18 09:45:32;;;;;;;;;;;23.80;42.90;;;;;;1515394;78;789;-56
2021/08/18 09:47:31;;;;;;;;;;;23.80;42.90;;;;;;1507095;77;1461;-58
2021/08/18 09:49:36;;;;;;;;;;;23.70;43.00;;;;;;1507711;78;750;-60
2021/08/18 09:51:46;;;;;;;;;;;23.80;42.90;;;;;;1507431;78;863;-60
2021/08/18 09:53:44;;;;;;;;;;;23.80;43.00;;;;;;1520332;77;1590;-60
2021/08/18 09:55:50;;;;;;;;;;;23.80;43.00;;;;;;1514027;77;775;-60
2021/08/18 09:57:52;;;;;;;;;;;23.80;43.00;;;;;;1504262;78;827;-56
2021/08/18 09:59:53;;;;;;;;;;;23.70;43.00;;;;;;1518882;77;660;-59
2021/08/18 10:01:55;;;;;;;;;;;23.80;42.90;;;;;;1504248;78;756;-58
2021/08/18 10:03:57;;;;;;;;;;;23.80;42.90;;;;;;1503163;78;1935;-57
2021/08/18 10:05:59;;;;;;;;;;;23.80;42.90;;;;;;1501646;78;667;-57
2021/08/18 10:08:01;;;;;;;;;;;23.80;42.90;;;;;;1505789;77;803;-57
2021/08/18 10:10:04;;;;;;;;;;;23.80;43.00;;;;;;1508832;78;724;-60
2021/08/18 10:12:06;;;;;;;;;;;23.80;43.00;;;;;;1520136;78;717;-56
2021/08/18 10:14:08;;;;;;;;;;;23.90;43.00;;;;;;1507865;78;1165;-57
2021/08/18 10:16:10;;;;;;;;;;;23.90;43.00;;;;;;1509809;77;750;-58
2021/08/18 10:18:12;;;;;;;;;;;23.80;42.90;;;;;;1502747;78;733;-58
2021/08/18 10:20:14;;;;;;;;;;;23.80;43.00;;;;;;1481781;79;1172;-57
2021/08/18 10:22:16;;;;;;;;;;;23.80;42.90;;;;;;1521906;78;1943;-55
2021/08/18 10:24:29;;;;;;;;;;;23.70;43.10;;;;;;1473687;79;1149;-55
2021/08/18 10:26:37;;;;;;;;;;;23.80;43.10;;;;;;1507823;78;1818;-57
2021/08/18 10:28:54;;;;;;;;;;;23.80;43.10;;;;;;1514982;78;1215;-60
2021/08/18 10:30:56;;;;;;;;;;;23.70;43.10;;;;;;1518300;78;1058;-60
2021/08/18 10:32:57;;;;;;;;;;;23.80;43.10;;;;;;1501121;77;1140;-59
2021/08/18 10:34:59;;;;;;;;;;;23.80;43.00;;;;;;1504268;77;758;-59
2021/08/18 10:37:09;;;;;;;;;;;23.80;43.10;;;;;;1506413;78;744;-57
2021/08/18 10:39:21;;;;;;;;;;;23.80;43.00;;;;;;1509242;78;1559;-58
2021/08/18 10:41:28;;;;;;;;;;;23.80;43.10;;;;;;1520758;78;662;-57
2021/08/18 10:43:40;;;;;;;;;;;23.80;43.10;;;;;;1510930;78;1949;-58
2021/08/18 10:45:44;;;;;;;;;;;23.80;43.10;;;;;;1462172;79;1268;-59
2021/08/18 10:47:46;;;;;;;;;;;23.80;43.10;;;;;;1486474;80;1273;-57
2021/08/18 10:49:49;;;;;;;;;;;23.80;43.10;;;;;;1504669;78;740;-58
2021/08/18 10:51:52;;;;;;;;;;;23.80;43.10;;;;;;1497477;77;704;-56
2021/08/18 10:53:54;;;;;;;;;;;23.80;43.10;;;;;;1510477;78;1147;-56
2021/08/18 10:55:56;;;;;;;;;;;23.80;43.10;;;;;;1509771;78;780;-56
2021/08/18 10:58:09;;;;;;;;;;;23.90;43.20;;;;;;1501887;78;832;-60
2021/08/18 11:00:15;;;;;;;;;;;23.80;43.10;;;;;;1507520;77;1182;-59
2021/08/18 11:02:35;;;;;;;;;;;23.80;43.20;;;;;;1497478;78;1811;-56
2021/08/18 11:04:47;;;;;;;;;;;23.90;43.30;;;;;;1498716;78;835;-56
2021/08/18 11:06:51;;;;;;;;;;;23.90;43.20;;;;;;1503737;78;823;-59
2021/08/18 11:08:53;;;;;;;;;;;23.90;43.30;;;;;;1504358;78;631;-59
2021/08/18 11:10:57;;;;;;;;;;;24.00;43.20;;;;;;1504981;77;859;-56
2021/08/18 11:13:00;;;;;;;;;;;23.90;43.20;;;;;;1503854;78;1171;-60
2021/08/18 11:15:02;;;;;;;;;;;23.90;43.20;;;;;;1507184;78;728;-59
2021/08/18 11:17:07;;;;;;;;;;;23.90;43.30;;;;;;1519016;78;832;-58
2021/08/18 11:19:09;;;;;;;;;;;23.90;43.10;;;;;;1518309;77;715;-59
2021/08/18 11:21:12;;;;;;;;;;;24.00;43.10;;;;;;1509073;78;694;-59
2021/08/18 11:23:14;;;;;;;;;;;23.90;43.10;;;;;;1509531;78;2098;-56
2021/08/18 11:25:18;;;;;;;;;;;23.90;43.10;;;;;;1517822;78;770;-57
2021/08/18 11:27:20;;;;;;;;;;;24.00;43.10;;;;;;1500938;78;1671;-59
2021/08/18 11:29:23;;;;;;;;;;;23.90;43.20;;;;;;1515067;77;752;-56
2021/08/18 11:31:32;;;;;;;;;;;23.90;43.20;;;;;;1493958;78;816;-59
2021/08/18 11:33:34;;;;;;;;;;;23.90;43.20;;;;;;1489323;79;1096;-59
2021/08/18 11:35:36;;;;;;;;;;;24.00;43.20;;;;;;1506973;78;842;-56
2021/08/18 11:37:38;;;;;;;;;;;23.90;43.20;;;;;;1514477;77;782;-59
2021/08/18 11:39:41;;;;;;;;;;;23.90;43.20;;;;;;1473319;80;687;-58
2021/08/18 11:41:43;;;;;;;;;;;23.90;43.10;;;;;;1500315;77;698;-60
2021/08/18 11:43:45;;;;;;;;;;;23.90;43.10;;;;;;1495120;77;1946;-55
2021/08/18 11:45:51;;;;;;;;;;;23.90;43.10;;;;;;1501215;77;755;-58
2021/08/18 11:47:54;;;;;;;;;;;24.00;43.10;;;;;;1500479;77;806;-59
2021/08/18 11:49:56;;;;;;;;;;;23.90;43.10;;;;;;1477898;77;1460;-60
2021/08/18 11:51:58;;;;;;;;;;;24.00;43.10;;;;;;1497019;77;678;-58
2021/08/18 11:54:00;;;;;;;;;;;23.90;43.10;;;;;;1506758;77;1172;-58
2021/08/18 11:56:03;;;;;;;;;;;23.90;43.20;;;;;;1507169;77;820;-55
2021/08/18 11:58:06;;;;;;;;;;;24.00;43.20;;;;;;1489662;79;793;-60
2021/08/18 12:00:08;;;;;;;;;;;23.90;43.20;;;;;;1491479;77;734;-60
2021/08/18 12:02:10;;;;;;;;;;;23.90;43.10;;;;;;1486739;79;713;-56
2021/08/18 12:04:12;;;;;;;;;;;23.90;43.20;;;;;;1490590;77;1949;-60
2021/08/18 12:06:14;;;;;;;;;;;23.90;43.20;;;;;;1487196;79;925;-59
2021/08/18 12:08:17;;;;;;;;;;;23.90;43.20;;;;;;1486058;77;747;-58
2021/08/18 12:10:23;;;;;;;;;;;23.90;43.20;;;;;;1506493;77;725;-58
2021/08/18 12:12:26;;;;;;;;;;;24.00;43.20;;;;;;1489358;77;659;-57